createdAt,value
2023-02-20T00:01:33.594Z,-1.59
2023-02-20T00:04:00.098Z,-1.59
2023-02-20T00:06:26.853Z,-1.67
2023-02-20T00:08:53.287Z,-1.63
2023-02-20T00:11:19.723Z,-1.62
2023-02-20T00:13:47.978Z,-1.72
2023-02-20T00:16:14.643Z,-1.66
2023-02-20T00:18:41.369Z,-1.59
2023-02-20T00:21:07.988Z,-1.72
2023-02-20T00:23:35.034Z,-1.71
2023-02-20T00:26:01.932Z,-1.69
2023-02-20T00:28:29.846Z,-1.70
2023-02-20T00:30:57.089Z,-1.69
2023-02-20T00:33:23.942Z,-1.80
2023-02-20T00:35:50.374Z,-1.75
2023-02-20T00:38:16.921Z,-1.79
2023-02-20T00:40:43.370Z,-1.81
2023-02-20T00:43:09.819Z,-1.72
2023-02-20T00:45:36.246Z,-1.79
2023-02-20T00:48:02.715Z,-1.84
2023-02-20T00:50:29.213Z,-1.81
2023-02-20T00:52:55.743Z,-1.84
2023-02-20T00:55:22.151Z,-1.87
2023-02-20T00:57:48.618Z,-1.89
2023-02-20T01:00:25.334Z,-1.93
2023-02-20T01:02:51.923Z,-1.92
2023-02-20T01:05:18.519Z,-1.96
2023-02-20T01:07:44.967Z,-1.92
2023-02-20T01:10:12.029Z,-1.91
2023-02-20T01:12:38.534Z,-1.96
2023-02-20T01:15:06.501Z,-1.93
2023-02-20T01:17:33.232Z,-1.99
2023-02-20T01:19:59.657Z,-1.98
2023-02-20T01:22:26.233Z,-2.00
2023-02-20T01:24:52.688Z,-2.03
2023-02-20T01:32:36.903Z,-1.95
2023-02-20T01:35:03.509Z,-1.92
2023-02-20T01:37:29.972Z,-1.97
2023-02-20T01:39:56.563Z,-1.98
2023-02-20T01:42:25.228Z,-1.89
2023-02-20T01:44:52.232Z,-1.89
2023-02-20T01:47:21.960Z,-1.89
2023-02-20T01:49:57.342Z,-1.87
2023-02-20T01:52:27.321Z,-1.80
2023-02-20T01:55:02.651Z,-1.70
2023-02-20T01:57:32.448Z,-1.69
2023-02-20T02:00:12.024Z,-1.68
2023-02-20T02:02:43.933Z,-1.78
2023-02-20T02:08:54.710Z,-1.77
2023-02-20T02:11:23.894Z,-1.69
2023-02-20T02:13:50.359Z,-1.65
2023-02-20T02:16:52.566Z,-1.59
2023-02-20T02:19:36.898Z,-1.61
2023-02-20T02:22:16.318Z,-1.56
2023-02-20T02:25:16.850Z,-1.48
2023-02-20T02:30:53.380Z,-1.37
2023-02-20T02:33:29.061Z,-1.34
2023-02-20T02:36:27.853Z,-1.25
2023-02-20T02:39:10.627Z,-1.20
2023-02-20T02:41:54.210Z,-1.14
2023-02-20T02:44:36.580Z,-1.06
2023-02-20T02:47:07.695Z,-1.10
2023-02-20T02:49:48.206Z,-1.05
2023-02-20T02:52:35.974Z,-1.03
2023-02-20T02:55:03.240Z,-0.92
2023-02-20T02:57:29.762Z,-1.02
2023-02-20T03:00:12.138Z,-0.92
2023-02-20T03:02:50.266Z,-0.91
2023-02-20T03:05:20.296Z,-0.87
2023-02-20T03:07:53.368Z,-0.88
2023-02-20T03:10:31.678Z,-0.78
2023-02-20T03:13:04.170Z,-0.70
2023-02-20T03:15:37.777Z,-0.75
2023-02-20T03:18:19.551Z,-0.68
2023-02-20T03:20:50.887Z,-0.58
2023-02-20T03:23:23.084Z,-0.58
2023-02-20T03:25:58.544Z,-0.46
2023-02-20T03:28:30.805Z,-0.43
2023-02-20T03:31:15.453Z,-0.40
2023-02-20T03:34:22.087Z,-0.37
2023-02-20T03:37:12.933Z,-0.37
2023-02-20T03:40:04.019Z,-0.32
2023-02-20T03:42:55.456Z,-0.33
2023-02-20T03:45:26.740Z,-0.27
2023-02-20T03:47:57.306Z,-0.24
2023-02-20T03:50:42.301Z,-0.24
2023-02-20T03:53:08.853Z,-0.18
2023-02-20T03:55:35.342Z,-0.11
2023-02-20T03:58:05.269Z,-0.11
2023-02-20T04:00:36.170Z,-0.08
2023-02-20T04:03:10.373Z,-0.03
2023-02-20T04:05:41.258Z,-0.03
2023-02-20T04:08:35.565Z,-0.07
2023-02-20T04:11:11.099Z,0.02
2023-02-20T04:13:39.271Z,0.08
2023-02-20T04:16:06.194Z,-0.02
2023-02-20T04:18:33.447Z,-0.01
2023-02-20T04:21:02.442Z,0.09
2023-02-20T04:23:32.517Z,0.00
2023-02-20T04:26:04.533Z,0.09
2023-02-20T04:28:31.492Z,0.05
2023-02-20T04:30:58.192Z,0.09
2023-02-20T04:33:24.964Z,0.09
2023-02-20T04:35:51.524Z,0.09
2023-02-20T04:38:18.105Z,0.07
2023-02-20T04:40:44.637Z,0.07
2023-02-20T04:43:11.122Z,0.14
2023-02-20T04:45:37.846Z,0.14
2023-02-20T04:48:04.539Z,0.22
2023-02-20T04:50:33.244Z,0.16
2023-02-20T04:53:00.792Z,0.21
2023-02-20T04:55:28.799Z,0.19
2023-02-20T04:57:57.784Z,0.23
2023-02-20T05:00:25.840Z,0.29
2023-02-20T05:02:52.703Z,0.31
2023-02-20T05:05:22.424Z,0.29
2023-02-20T05:07:49.292Z,0.31
2023-02-20T05:10:18.614Z,0.32
2023-02-20T05:12:45.004Z,0.37
2023-02-20T05:15:11.511Z,0.34
2023-02-20T05:17:38.282Z,0.36
2023-02-20T05:20:06.219Z,0.41
2023-02-20T05:22:32.877Z,0.43
2023-02-20T05:24:59.918Z,0.45
2023-02-20T05:27:27.920Z,0.46
2023-02-20T05:29:57.035Z,0.50
2023-02-20T05:32:25.346Z,0.47
2023-02-20T05:34:52.379Z,0.51
2023-02-20T05:37:21.079Z,0.48
2023-02-20T05:39:48.114Z,0.52
2023-02-20T05:42:15.479Z,0.50
2023-02-20T05:44:42.206Z,0.52
2023-02-20T05:47:08.719Z,0.55
2023-02-20T05:49:36.234Z,0.54
2023-02-20T05:52:10.021Z,0.57
2023-02-20T05:54:36.501Z,0.59
2023-02-20T05:57:02.980Z,0.59
2023-02-20T05:59:29.466Z,0.58
2023-02-20T06:01:57.845Z,0.62
2023-02-20T06:04:24.541Z,0.63
2023-02-20T06:06:51.106Z,0.60
2023-02-20T06:09:17.866Z,0.62
2023-02-20T06:11:55.815Z,0.63
2023-02-20T06:14:24.900Z,0.65
2023-02-20T06:16:51.710Z,0.67
2023-02-20T06:19:23.267Z,0.69
2023-02-20T06:21:50.449Z,0.67
2023-02-20T06:24:17.645Z,0.70
2023-02-20T06:26:44.403Z,0.71
2023-02-20T06:29:11.605Z,0.78
2023-02-20T06:31:38.247Z,0.76
2023-02-20T06:34:04.812Z,0.76
2023-02-20T06:36:34.846Z,0.80
2023-02-20T06:39:01.822Z,0.83
2023-02-20T06:41:28.304Z,0.88
2023-02-20T06:43:55.058Z,0.85
2023-02-20T06:46:22.888Z,0.90
2023-02-20T06:48:53.148Z,0.89
2023-02-20T06:51:21.341Z,0.91
2023-02-20T06:53:47.907Z,0.89
2023-02-20T06:56:21.146Z,0.96
2023-02-20T06:58:49.232Z,0.98
2023-02-20T07:01:17.542Z,1.06
2023-02-20T07:03:48.721Z,1.09
2023-02-20T07:06:16.312Z,1.12
2023-02-20T07:08:43.193Z,1.13
2023-02-20T07:11:10.167Z,1.13
2023-02-20T07:13:36.636Z,1.15
2023-02-20T07:16:03.186Z,1.24
2023-02-20T07:18:29.749Z,1.32
2023-02-20T07:20:56.637Z,1.36
2023-02-20T07:23:23.631Z,1.41
2023-02-20T07:25:50.395Z,1.45
2023-02-20T07:28:19.083Z,1.46
2023-02-20T07:30:49.003Z,1.51
2023-02-20T07:33:16.746Z,1.58
2023-02-20T07:35:43.282Z,1.57
2023-02-20T07:38:09.812Z,1.60
2023-02-20T07:40:38.888Z,1.61
2023-02-20T07:43:06.438Z,1.63
2023-02-20T07:45:33.257Z,1.68
2023-02-20T07:47:59.769Z,1.66
2023-02-20T07:50:26.307Z,1.71
2023-02-20T07:52:52.781Z,1.73
2023-02-20T07:55:19.462Z,1.73
2023-02-20T07:57:47.996Z,1.78
2023-02-20T08:00:16.932Z,1.80
2023-02-20T08:02:43.414Z,1.79
2023-02-20T08:05:10.576Z,1.87
2023-02-20T08:07:37.505Z,1.90
2023-02-20T08:10:05.518Z,1.94
2023-02-20T08:12:32.279Z,1.99
2023-02-20T08:14:58.731Z,2.03
2023-02-20T08:17:29.647Z,2.03
2023-02-20T08:20:00.890Z,2.11
2023-02-20T08:22:39.951Z,2.12
2023-02-20T08:25:07.938Z,2.16
2023-02-20T08:27:38.246Z,2.12
2023-02-20T08:30:08.077Z,2.15
2023-02-20T08:32:34.812Z,2.13
2023-02-20T08:35:01.354Z,2.18
2023-02-20T08:37:27.846Z,2.24
2023-02-20T08:39:54.495Z,2.26
2023-02-20T08:42:20.990Z,2.26
2023-02-20T08:44:47.809Z,2.28
2023-02-20T08:47:14.344Z,2.40
2023-02-20T08:49:40.829Z,2.40
2023-02-20T08:52:07.322Z,2.42
2023-02-20T08:57:08.984Z,2.45
2023-02-20T08:59:37.252Z,2.58
2023-02-20T09:02:03.722Z,2.59
2023-02-20T09:04:30.163Z,2.68
2023-02-20T09:06:56.678Z,2.62
2023-02-20T09:09:24.225Z,2.68
2023-02-20T09:11:51.029Z,2.71
2023-02-20T09:14:17.654Z,2.80
2023-02-20T09:16:44.188Z,2.87
2023-02-20T09:19:10.853Z,2.88
2023-02-20T09:21:37.291Z,2.86
2023-02-20T09:24:06.173Z,2.96
2023-02-20T09:26:32.682Z,2.99
2023-02-20T09:28:59.150Z,2.95
2023-02-20T09:31:25.728Z,3.07
2023-02-20T09:33:52.436Z,3.11
2023-02-20T09:36:18.990Z,3.24
2023-02-20T09:38:45.451Z,3.28
2023-02-20T09:41:45.628Z,3.29
2023-02-20T09:44:41.504Z,3.37
2023-02-20T09:47:29.113Z,3.44
2023-02-20T09:50:01.287Z,3.49
2023-02-20T09:52:29.596Z,3.61
2023-02-20T09:55:03.495Z,3.51
2023-02-20T09:57:32.741Z,3.58
2023-02-20T10:00:30.409Z,3.67
2023-02-20T10:03:16.238Z,3.74
2023-02-20T10:05:45.898Z,4.01
2023-02-20T10:08:19.031Z,4.08
2023-02-20T10:10:45.621Z,4.21
2023-02-20T10:13:21.404Z,4.40
2023-02-20T10:16:00.239Z,4.30
2023-02-20T10:18:48.853Z,4.32
2023-02-20T10:21:15.232Z,4.46
2023-02-20T10:23:54.010Z,4.33
2023-02-20T10:26:37.305Z,4.29
2023-02-20T10:29:31.523Z,4.32
2023-02-20T10:32:07.225Z,4.36
2023-02-20T10:34:41.276Z,4.28
2023-02-20T10:37:15.577Z,4.39
2023-02-20T10:39:52.854Z,4.30
2023-02-20T10:42:42.426Z,4.39
2023-02-20T10:45:20.413Z,4.68
2023-02-20T10:48:02.358Z,4.75
2023-02-20T10:50:44.640Z,4.75
2023-02-20T10:53:19.667Z,4.93
2023-02-20T10:55:50.314Z,5.07
2023-02-20T10:58:33.871Z,5.01
2023-02-20T11:01:07.888Z,5.15
2023-02-20T11:03:54.202Z,5.12
2023-02-20T11:06:23.079Z,5.17
2023-02-20T11:08:49.537Z,5.27
2023-02-20T11:11:33.388Z,5.18
2023-02-20T11:14:02.115Z,5.13
2023-02-20T11:17:03.476Z,5.02
2023-02-20T11:19:43.171Z,5.12
2023-02-20T11:22:10.326Z,5.03
2023-02-20T11:24:41.767Z,5.02
2023-02-20T11:27:15.923Z,5.04
2023-02-20T11:29:56.256Z,4.99
2023-02-20T11:32:28.533Z,4.93
2023-02-20T11:35:14.486Z,4.95
2023-02-20T11:37:54.068Z,5.11
2023-02-20T11:40:33.891Z,5.20
2023-02-20T11:44:00.836Z,5.25
2023-02-20T11:46:28.429Z,5.46
2023-02-20T11:49:08.567Z,5.46
2023-02-20T11:51:46.484Z,5.54
2023-02-20T11:54:17.678Z,5.35
2023-02-20T11:57:02.900Z,5.38
2023-02-20T11:59:39.185Z,5.23
2023-02-20T12:02:17.784Z,5.15
2023-02-20T12:05:00.041Z,5.19
2023-02-20T12:07:35.254Z,5.16
2023-02-20T12:10:29.387Z,5.22
2023-02-20T12:12:56.007Z,5.27
2023-02-20T12:15:25.718Z,5.26
2023-02-20T12:18:17.188Z,5.23
2023-02-20T12:21:03.819Z,5.34
2023-02-20T12:23:45.443Z,5.32
2023-02-20T12:26:42.607Z,5.40
2023-02-20T12:29:27.568Z,5.35
2023-02-20T12:32:29.538Z,5.43
2023-02-20T12:35:14.777Z,5.41
2023-02-20T12:37:53.481Z,5.36
2023-02-20T12:40:42.315Z,5.36
2023-02-20T12:43:45.009Z,5.33
2023-02-20T12:46:24.845Z,5.16
2023-02-20T12:49:25.966Z,5.25
2023-02-20T12:52:28.405Z,5.21
2023-02-20T12:54:59.540Z,5.16
2023-02-20T12:57:36.295Z,5.20
2023-02-20T13:00:33.067Z,5.15
2023-02-20T13:03:09.628Z,5.05
2023-02-20T13:05:42.250Z,5.13
2023-02-20T13:08:25.813Z,5.14
2023-02-20T13:10:57.300Z,5.13
2023-02-20T13:13:30.223Z,5.11
2023-02-20T13:16:10.174Z,5.09
2023-02-20T13:18:48.010Z,5.03
2023-02-20T13:21:17.796Z,4.92
2023-02-20T13:23:44.379Z,4.88
2023-02-20T13:26:34.191Z,4.82
2023-02-20T13:29:23.862Z,4.82
2023-02-20T13:31:53.132Z,4.89
2023-02-20T13:34:19.582Z,4.74
2023-02-20T13:36:48.698Z,4.82
2023-02-20T13:39:21.358Z,4.80
2023-02-20T13:41:54.222Z,4.76
2023-02-20T13:44:29.938Z,4.67
2023-02-20T13:46:56.338Z,4.74
2023-02-20T13:49:50.285Z,4.73
2023-02-20T13:52:42.503Z,4.65
2023-02-20T13:55:13.369Z,4.64
2023-02-20T13:58:01.975Z,4.66
2023-02-20T14:00:34.305Z,4.63
2023-02-20T14:03:00.835Z,4.67
2023-02-20T14:05:32.595Z,4.65
2023-02-20T14:08:00.018Z,4.66
2023-02-20T14:10:33.947Z,4.71
2023-02-20T14:13:15.285Z,4.68
2023-02-20T14:15:58.859Z,4.62
2023-02-20T14:18:34.914Z,4.64
2023-02-20T14:21:18.718Z,4.63
2023-02-20T14:23:47.013Z,4.76
2023-02-20T14:26:22.494Z,4.76
2023-02-20T14:28:52.263Z,4.68
2023-02-20T14:31:32.780Z,4.72
2023-02-20T14:34:09.092Z,4.65
2023-02-20T14:36:59.573Z,4.68
2023-02-20T14:39:41.612Z,4.64
2023-02-20T14:42:16.127Z,4.74
2023-02-20T14:44:43.364Z,4.70
2023-02-20T14:47:14.607Z,4.73
2023-02-20T14:49:41.630Z,4.69
2023-02-20T14:52:13.351Z,4.73
2023-02-20T14:54:42.393Z,4.71
2023-02-20T14:57:14.074Z,4.77
2023-02-20T14:59:40.461Z,4.78
2023-02-20T15:02:32.659Z,4.79
2023-02-20T15:05:07.020Z,4.85
2023-02-20T15:07:34.822Z,4.86
2023-02-20T15:10:04.958Z,4.87
2023-02-20T15:12:37.891Z,4.82
2023-02-20T15:15:13.924Z,4.89
2023-02-20T15:17:42.555Z,4.87
2023-02-20T15:20:18.401Z,4.87
2023-02-20T15:22:45.232Z,4.98
2023-02-20T15:25:30.426Z,4.82
2023-02-20T15:28:19.656Z,4.85
2023-02-20T15:31:10.979Z,4.90
2023-02-20T15:33:40.836Z,4.89
2023-02-20T15:36:13.686Z,4.85
2023-02-20T15:38:41.788Z,4.87
2023-02-20T15:41:08.294Z,4.81
2023-02-20T15:43:47.195Z,4.81
2023-02-20T15:46:17.625Z,4.81
2023-02-20T15:48:44.556Z,4.78
2023-02-20T15:51:13.730Z,4.80
2023-02-20T15:53:42.758Z,4.75
2023-02-20T15:56:10.966Z,4.76
2023-02-20T15:58:39.980Z,4.74
2023-02-20T16:01:07.075Z,4.82
2023-02-20T16:03:50.532Z,4.82
2023-02-20T16:06:20.153Z,4.76
2023-02-20T16:08:47.428Z,4.79
2023-02-20T16:11:14.639Z,4.79
2023-02-20T16:13:44.419Z,4.73
2023-02-20T16:16:27.639Z,4.73
2023-02-20T16:18:55.145Z,4.67
2023-02-20T16:21:23.801Z,4.69
2023-02-20T18:09:19.671Z,4.53
2023-02-20T18:11:46.592Z,4.47
2023-02-20T18:14:14.220Z,4.50
2023-02-20T18:16:42.001Z,4.50
2023-02-20T18:19:13.557Z,4.49
2023-02-20T18:21:42.399Z,4.39
2023-02-20T18:24:09.927Z,4.40
2023-02-20T18:26:36.617Z,4.36
2023-02-20T18:29:04.059Z,4.44
2023-02-20T18:31:30.908Z,4.42
2023-02-20T18:33:57.452Z,4.42
2023-02-20T18:36:24.482Z,4.45
2023-02-20T18:38:51.093Z,4.41
2023-02-20T18:41:17.574Z,4.38
2023-02-20T18:43:45.931Z,4.41
2023-02-20T18:46:13.805Z,4.31
2023-02-20T18:48:41.213Z,4.32
2023-02-20T18:51:07.792Z,4.29
2023-02-20T18:53:34.234Z,4.21
2023-02-20T18:58:35.889Z,4.25
2023-02-20T19:01:02.410Z,4.21
2023-02-20T19:03:28.811Z,4.16
2023-02-20T19:05:55.293Z,4.12
2023-02-20T19:08:23.281Z,4.07
2023-02-20T19:10:49.878Z,4.08
2023-02-20T19:13:16.377Z,4.08
2023-02-20T19:15:42.887Z,4.03
2023-02-20T19:18:09.329Z,4.05
2023-02-20T19:20:35.782Z,4.00
2023-02-20T19:23:04.359Z,3.99
2023-02-20T19:25:30.842Z,3.98
2023-02-20T19:27:57.328Z,4.03
2023-02-20T19:30:23.877Z,3.99
2023-02-20T19:32:50.388Z,3.97
2023-02-20T19:35:17.447Z,3.94
2023-02-20T19:37:44.244Z,4.04
2023-02-20T19:40:11.507Z,4.03
2023-02-20T19:42:39.428Z,4.04
2023-02-20T19:45:06.464Z,4.01
2023-02-20T19:47:32.958Z,4.05
2023-02-20T19:49:59.439Z,4.09
2023-02-20T19:52:25.953Z,4.06
2023-02-20T19:54:52.442Z,4.18
2023-02-20T19:57:18.992Z,4.10
2023-02-20T19:59:45.530Z,4.09
2023-02-20T20:02:13.161Z,4.15
2023-02-20T20:04:39.891Z,4.09
2023-02-20T20:07:06.660Z,4.11
2023-02-20T20:09:36.969Z,4.12
2023-02-20T20:12:08.697Z,4.21
2023-02-20T20:14:35.976Z,4.17
2023-02-20T20:17:03.715Z,4.30
2023-02-20T20:19:30.705Z,4.29
2023-02-20T20:21:57.223Z,4.31
2023-02-20T20:24:23.653Z,4.32
2023-02-20T20:26:50.121Z,4.32
2023-02-20T20:29:16.617Z,4.39
2023-02-20T20:31:43.313Z,4.39
2023-02-20T20:34:10.079Z,4.44
2023-02-20T20:36:37.048Z,4.38
2023-02-20T20:39:04.638Z,4.42
2023-02-20T20:41:43.933Z,4.47
2023-02-20T20:44:11.692Z,4.49
2023-02-20T20:46:38.520Z,4.51
2023-02-20T20:49:04.997Z,4.45
2023-02-20T20:51:31.461Z,4.55
2023-02-20T20:53:57.911Z,4.52
2023-02-20T20:56:24.389Z,4.51
2023-02-20T20:58:51.132Z,4.56
2023-02-20T21:01:18.607Z,4.54
2023-02-20T21:03:45.102Z,4.62
2023-02-20T21:06:11.663Z,4.67
2023-02-20T21:08:38.172Z,4.58
2023-02-20T21:11:04.680Z,4.63
2023-02-20T21:13:31.187Z,4.63
2023-02-20T21:15:57.820Z,4.62
2023-02-20T21:18:24.317Z,4.65
2023-02-20T21:20:50.787Z,4.65
2023-02-20T21:23:17.306Z,4.64
2023-02-20T21:25:43.889Z,4.68
2023-02-20T21:28:10.432Z,4.64
2023-02-20T21:30:37.110Z,4.57
2023-02-20T21:33:03.652Z,4.65
2023-02-20T21:35:30.158Z,4.67
2023-02-20T21:37:56.826Z,4.63
2023-02-20T21:40:23.478Z,4.66
2023-02-20T21:45:25.213Z,4.65
2023-02-20T21:47:51.751Z,4.63
2023-02-20T21:50:19.359Z,4.60
2023-02-20T21:52:46.561Z,4.71
2023-02-20T21:55:16.006Z,4.67
2023-02-20T21:57:42.702Z,4.71
2023-02-20T22:00:10.417Z,4.68
2023-02-20T22:02:37.296Z,4.66
2023-02-20T22:05:04.498Z,4.67
2023-02-20T22:07:49.516Z,4.71
2023-02-20T22:10:34.669Z,4.64
2023-02-20T22:13:19.472Z,4.62
2023-02-20T22:16:07.431Z,4.59
2023-02-20T22:18:52.300Z,4.60
2023-02-20T22:21:42.647Z,4.65
2023-02-20T22:24:37.879Z,4.63
2023-02-20T22:27:24.992Z,4.65
2023-02-20T22:30:10.276Z,4.66
2023-02-20T22:32:55.715Z,4.61
2023-02-20T22:35:40.616Z,4.64
2023-02-20T22:38:25.640Z,4.68
2023-02-20T22:41:10.646Z,4.66
2023-02-20T22:43:55.552Z,4.69
2023-02-20T22:46:41.448Z,4.71
2023-02-20T22:49:26.787Z,4.63
2023-02-20T22:52:12.139Z,4.65
2023-02-20T22:55:04.722Z,4.69
2023-02-20T22:57:50.451Z,4.61
2023-02-20T23:00:35.586Z,4.69
2023-02-20T23:03:20.422Z,4.69
2023-02-20T23:06:16.834Z,4.72
2023-02-20T23:09:02.827Z,4.70
2023-02-20T23:11:47.542Z,4.70
2023-02-20T23:14:33.350Z,4.67
2023-02-20T23:17:29.308Z,4.66
2023-02-20T23:20:19.710Z,4.66
2023-02-20T23:23:05.349Z,4.68
2023-02-20T23:25:50.326Z,4.73
2023-02-20T23:28:37.492Z,4.65
2023-02-20T23:31:23.769Z,4.62
2023-02-20T23:34:09.410Z,4.60
2023-02-20T23:36:54.460Z,4.62
2023-02-20T23:39:39.536Z,4.54
2023-02-20T23:42:24.599Z,4.47
2023-02-20T23:45:09.612Z,4.49
2023-02-20T23:47:54.630Z,4.48
2023-02-20T23:50:39.620Z,4.45
2023-02-20T23:53:24.762Z,4.41
2023-02-20T23:56:11.302Z,4.40
2023-02-20T23:58:56.088Z,4.41
